sensor_id;sensor_type;location;lat;lon;timestamp;P1;durP1;ratioP1;P2;durP2;ratioP2
4472;SDS011;2249;42.626;23.320;2024-03-02T00:02:20;25.60;;;17.23;;
4472;SDS011;2249;42.626;23.320;2024-03-02T00:04:47;25.27;;;17.37;;
4472;SDS011;2249;42.626;23.320;2024-03-02T00:07:13;29.53;;;18.67;;
4472;SDS011;2249;42.626;23.320;2024-03-02T00:09:40;32.13;;;18.87;;
4472;SDS011;2249;42.626;23.320;2024-03-02T00:12:08;31.03;;;18.80;;
4472;SDS011;2249;42.626;23.320;2024-03-02T00:14:35;32.47;;;19.77;;
4472;SDS011;2249;42.626;23.320;2024-03-02T00:17:01;34.87;;;21.63;;
4472;SDS011;2249;42.626;23.320;2024-03-02T00:19:30;31.70;;;19.60;;
4472;SDS011;2249;42.626;23.320;2024-03-02T00:21:56;34.53;;;21.77;;
4472;SDS011;2249;42.626;23.320;2024-03-02T00:24:28;33.53;;;21.20;;
4472;SDS011;2249;42.626;23.320;2024-03-02T00:26:57;36.50;;;22.10;;
4472;SDS011;2249;42.626;23.320;2024-03-02T00:29:23;34.50;;;21.77;;
4472;SDS011;2249;42.626;23.320;2024-03-02T00:31:50;32.13;;;21.73;;
4472;SDS011;2249;42.626;23.320;2024-03-02T00:34:18;32.60;;;21.20;;
4472;SDS011;2249;42.626;23.320;2024-03-02T00:36:46;37.47;;;20.77;;
4472;SDS011;2249;42.626;23.320;2024-03-02T00:39:13;36.97;;;21.73;;
4472;SDS011;2249;42.626;23.320;2024-03-02T00:41:41;32.87;;;21.30;;
4472;SDS011;2249;42.626;23.320;2024-03-02T00:44:09;37.37;;;22.20;;
4472;SDS011;2249;42.626;23.320;2024-03-02T00:46:37;37.50;;;23.37;;
4472;SDS011;2249;42.626;23.320;2024-03-02T00:49:04;32.53;;;20.97;;
4472;SDS011;2249;42.626;23.320;2024-03-02T00:51:31;30.23;;;20.20;;
4472;SDS011;2249;42.626;23.320;2024-03-02T00:54:00;31.40;;;20.90;;
4472;SDS011;2249;42.626;23.320;2024-03-02T00:56:29;35.30;;;21.90;;
4472;SDS011;2249;42.626;23.320;2024-03-02T00:58:55;36.27;;;22.30;;
4472;SDS011;2249;42.626;23.320;2024-03-02T01:01:23;33.20;;;19.00;;
4472;SDS011;2249;42.626;23.320;2024-03-02T01:03:49;27.93;;;17.73;;
4472;SDS011;2249;42.626;23.320;2024-03-02T01:06:16;40.50;;;20.23;;
4472;SDS011;2249;42.626;23.320;2024-03-02T01:08:43;30.50;;;18.17;;
4472;SDS011;2249;42.626;23.320;2024-03-02T01:11:11;26.90;;;17.30;;
4472;SDS011;2249;42.626;23.320;2024-03-02T01:13:38;33.33;;;17.03;;
4472;SDS011;2249;42.626;23.320;2024-03-02T01:16:05;32.03;;;18.27;;
4472;SDS011;2249;42.626;23.320;2024-03-02T01:18:31;28.00;;;17.60;;
4472;SDS011;2249;42.626;23.320;2024-03-02T01:20:58;32.40;;;21.30;;
4472;SDS011;2249;42.626;23.320;2024-03-02T01:23:25;32.33;;;21.53;;
4472;SDS011;2249;42.626;23.320;2024-03-02T01:25:52;35.77;;;22.27;;
4472;SDS011;2249;42.626;23.320;2024-03-02T01:28:20;34.97;;;21.60;;
4472;SDS011;2249;42.626;23.320;2024-03-02T01:30:47;34.37;;;22.03;;
4472;SDS011;2249;42.626;23.320;2024-03-02T01:33:14;32.93;;;20.73;;
4472;SDS011;2249;42.626;23.320;2024-03-02T01:35:40;29.73;;;18.70;;
4472;SDS011;2249;42.626;23.320;2024-03-02T01:38:07;29.87;;;18.57;;
4472;SDS011;2249;42.626;23.320;2024-03-02T01:40:34;26.83;;;17.60;;
4472;SDS011;2249;42.626;23.320;2024-03-02T01:43:01;29.20;;;18.30;;
4472;SDS011;2249;42.626;23.320;2024-03-02T01:45:29;27.37;;;16.60;;
4472;SDS011;2249;42.626;23.320;2024-03-02T01:47:56;28.63;;;17.40;;
4472;SDS011;2249;42.626;23.320;2024-03-02T01:50:25;28.90;;;18.63;;
4472;SDS011;2249;42.626;23.320;2024-03-02T01:52:52;24.83;;;17.13;;
4472;SDS011;2249;42.626;23.320;2024-03-02T01:55:19;29.93;;;19.53;;
4472;SDS011;2249;42.626;23.320;2024-03-02T01:57:46;28.83;;;17.23;;
4472;SDS011;2249;42.626;23.320;2024-03-02T02:00:13;29.47;;;18.17;;
4472;SDS011;2249;42.626;23.320;2024-03-02T02:02:41;28.90;;;18.23;;
4472;SDS011;2249;42.626;23.320;2024-03-02T02:05:07;35.17;;;19.80;;
4472;SDS011;2249;42.626;23.320;2024-03-02T02:07:34;26.23;;;17.00;;
4472;SDS011;2249;42.626;23.320;2024-03-02T02:10:01;31.73;;;19.10;;
4472;SDS011;2249;42.626;23.320;2024-03-02T02:12:28;25.70;;;16.80;;
4472;SDS011;2249;42.626;23.320;2024-03-02T02:14:55;29.33;;;18.63;;
4472;SDS011;2249;42.626;23.320;2024-03-02T02:17:21;32.20;;;20.70;;
4472;SDS011;2249;42.626;23.320;2024-03-02T02:19:49;24.93;;;15.60;;
4472;SDS011;2249;42.626;23.320;2024-03-02T02:22:17;25.40;;;16.70;;
4472;SDS011;2249;42.626;23.320;2024-03-02T02:24:43;31.03;;;19.50;;
4472;SDS011;2249;42.626;23.320;2024-03-02T02:27:10;28.33;;;18.50;;
4472;SDS011;2249;42.626;23.320;2024-03-02T02:29:37;33.80;;;18.73;;
4472;SDS011;2249;42.626;23.320;2024-03-02T02:32:04;25.83;;;16.97;;
4472;SDS011;2249;42.626;23.320;2024-03-02T02:34:33;27.77;;;18.93;;
4472;SDS011;2249;42.626;23.320;2024-03-02T02:36:59;32.00;;;18.70;;
4472;SDS011;2249;42.626;23.320;2024-03-02T02:39:28;28.20;;;18.67;;
4472;SDS011;2249;42.626;23.320;2024-03-02T02:41:54;31.27;;;18.57;;
4472;SDS011;2249;42.626;23.320;2024-03-02T02:44:21;26.13;;;16.80;;
4472;SDS011;2249;42.626;23.320;2024-03-02T02:46:47;26.30;;;17.00;;
4472;SDS011;2249;42.626;23.320;2024-03-02T02:49:13;26.30;;;17.37;;
4472;SDS011;2249;42.626;23.320;2024-03-02T02:51:40;21.97;;;15.70;;
4472;SDS011;2249;42.626;23.320;2024-03-02T02:54:06;25.77;;;15.90;;
4472;SDS011;2249;42.626;23.320;2024-03-02T02:56:34;26.70;;;18.60;;
4472;SDS011;2249;42.626;23.320;2024-03-02T02:59:01;30.87;;;19.67;;
4472;SDS011;2249;42.626;23.320;2024-03-02T03:01:27;26.60;;;17.40;;
4472;SDS011;2249;42.626;23.320;2024-03-02T03:03:54;28.40;;;17.67;;
4472;SDS011;2249;42.626;23.320;2024-03-02T03:06:21;24.13;;;16.80;;
4472;SDS011;2249;42.626;23.320;2024-03-02T03:08:47;29.00;;;17.63;;
4472;SDS011;2249;42.626;23.320;2024-03-02T03:11:12;27.00;;;17.97;;
4472;SDS011;2249;42.626;23.320;2024-03-02T03:13:40;27.70;;;18.30;;
4472;SDS011;2249;42.626;23.320;2024-03-02T03:16:08;22.90;;;15.97;;
4472;SDS011;2249;42.626;23.320;2024-03-02T03:18:48;33.80;;;20.30;;
4472;SDS011;2249;42.626;23.320;2024-03-02T03:21:16;33.70;;;20.13;;
4472;SDS011;2249;42.626;23.320;2024-03-02T03:23:43;33.63;;;20.87;;
4472;SDS011;2249;42.626;23.320;2024-03-02T03:26:09;35.73;;;20.77;;
4472;SDS011;2249;42.626;23.320;2024-03-02T03:28:36;29.07;;;19.60;;
4472;SDS011;2249;42.626;23.320;2024-03-02T03:31:04;33.23;;;21.60;;
4472;SDS011;2249;42.626;23.320;2024-03-02T03:33:30;30.90;;;19.77;;
4472;SDS011;2249;42.626;23.320;2024-03-02T03:35:57;33.20;;;20.73;;
4472;SDS011;2249;42.626;23.320;2024-03-02T03:38:23;32.17;;;20.77;;
4472;SDS011;2249;42.626;23.320;2024-03-02T03:40:49;31.73;;;19.67;;
4472;SDS011;2249;42.626;23.320;2024-03-02T03:43:16;35.53;;;22.30;;
4472;SDS011;2249;42.626;23.320;2024-03-02T03:45:42;34.27;;;21.60;;
4472;SDS011;2249;42.626;23.320;2024-03-02T03:48:10;34.43;;;22.40;;
4472;SDS011;2249;42.626;23.320;2024-03-02T03:50:37;30.93;;;20.63;;
4472;SDS011;2249;42.626;23.320;2024-03-02T03:53:04;32.30;;;20.37;;
4472;SDS011;2249;42.626;23.320;2024-03-02T03:55:31;34.87;;;22.60;;
4472;SDS011;2249;42.626;23.320;2024-03-02T03:57:57;30.77;;;20.10;;
4472;SDS011;2249;42.626;23.320;2024-03-02T04:00:24;34.13;;;21.80;;
4472;SDS011;2249;42.626;23.320;2024-03-02T04:02:50;31.30;;;20.70;;
4472;SDS011;2249;42.626;23.320;2024-03-02T04:05:18;29.83;;;18.93;;
4472;SDS011;2249;42.626;23.320;2024-03-02T04:07:45;31.30;;;19.77;;
4472;SDS011;2249;42.626;23.320;2024-03-02T04:10:11;28.30;;;19.20;;
4472;SDS011;2249;42.626;23.320;2024-03-02T04:12:38;32.20;;;20.57;;
4472;SDS011;2249;42.626;23.320;2024-03-02T04:15:05;40.27;;;23.33;;
4472;SDS011;2249;42.626;23.320;2024-03-02T04:17:32;33.80;;;21.43;;
4472;SDS011;2249;42.626;23.320;2024-03-02T04:19:58;35.67;;;21.93;;
4472;SDS011;2249;42.626;23.320;2024-03-02T04:22:27;33.07;;;21.20;;
4472;SDS011;2249;42.626;23.320;2024-03-02T04:24:53;34.73;;;21.70;;
4472;SDS011;2249;42.626;23.320;2024-03-02T04:27:20;31.27;;;20.17;;
4472;SDS011;2249;42.626;23.320;2024-03-02T04:29:46;30.60;;;20.17;;
4472;SDS011;2249;42.626;23.320;2024-03-02T04:32:13;28.77;;;19.80;;
4472;SDS011;2249;42.626;23.320;2024-03-02T04:34:39;25.30;;;16.47;;
4472;SDS011;2249;42.626;23.320;2024-03-02T04:37:06;30.60;;;19.33;;
4472;SDS011;2249;42.626;23.320;2024-03-02T04:39:35;33.27;;;19.43;;
4472;SDS011;2249;42.626;23.320;2024-03-02T04:42:02;30.90;;;20.33;;
4472;SDS011;2249;42.626;23.320;2024-03-02T04:44:29;28.23;;;18.20;;
4472;SDS011;2249;42.626;23.320;2024-03-02T04:46:55;31.57;;;18.83;;
4472;SDS011;2249;42.626;23.320;2024-03-02T04:49:22;29.37;;;18.73;;
4472;SDS011;2249;42.626;23.320;2024-03-02T04:51:48;28.47;;;17.77;;
4472;SDS011;2249;42.626;23.320;2024-03-02T04:54:14;28.70;;;18.07;;
4472;SDS011;2249;42.626;23.320;2024-03-02T04:56:42;35.37;;;19.30;;
4472;SDS011;2249;42.626;23.320;2024-03-02T04:59:14;34.80;;;19.20;;
4472;SDS011;2249;42.626;23.320;2024-03-02T05:01:41;32.20;;;19.47;;
4472;SDS011;2249;42.626;23.320;2024-03-02T05:04:07;32.43;;;19.40;;
4472;SDS011;2249;42.626;23.320;2024-03-02T05:06:36;29.37;;;18.80;;
4472;SDS011;2249;42.626;23.320;2024-03-02T05:09:03;40.33;;;20.57;;
4472;SDS011;2249;42.626;23.320;2024-03-02T05:11:29;32.83;;;20.50;;
4472;SDS011;2249;42.626;23.320;2024-03-02T05:14:19;41.77;;;24.20;;
4472;SDS011;2249;42.626;23.320;2024-03-02T05:16:45;29.73;;;18.70;;
4472;SDS011;2249;42.626;23.320;2024-03-02T05:19:12;28.10;;;18.40;;
4472;SDS011;2249;42.626;23.320;2024-03-02T05:21:38;27.60;;;18.30;;
4472;SDS011;2249;42.626;23.320;2024-03-02T05:24:05;29.73;;;18.73;;
4472;SDS011;2249;42.626;23.320;2024-03-02T05:26:38;26.23;;;18.27;;
4472;SDS011;2249;42.626;23.320;2024-03-02T05:29:14;24.87;;;17.00;;
4472;SDS011;2249;42.626;23.320;2024-03-02T05:31:42;23.93;;;16.80;;
4472;SDS011;2249;42.626;23.320;2024-03-02T05:34:08;24.73;;;16.53;;
4472;SDS011;2249;42.626;23.320;2024-03-02T05:36:34;29.73;;;17.43;;
4472;SDS011;2249;42.626;23.320;2024-03-02T05:39:02;28.10;;;19.00;;
4472;SDS011;2249;42.626;23.320;2024-03-02T05:41:30;29.07;;;19.47;;
4472;SDS011;2249;42.626;23.320;2024-03-02T05:43:56;27.80;;;17.90;;
4472;SDS011;2249;42.626;23.320;2024-03-02T05:46:23;29.43;;;18.40;;
4472;SDS011;2249;42.626;23.320;2024-03-02T05:48:51;30.10;;;19.50;;
4472;SDS011;2249;42.626;23.320;2024-03-02T05:51:17;31.37;;;18.97;;
4472;SDS011;2249;42.626;23.320;2024-03-02T05:53:44;27.17;;;17.93;;
4472;SDS011;2249;42.626;23.320;2024-03-02T05:56:10;29.60;;;18.97;;
4472;SDS011;2249;42.626;23.320;2024-03-02T05:58:37;37.07;;;22.60;;
4472;SDS011;2249;42.626;23.320;2024-03-02T06:01:14;39.37;;;22.70;;
4472;SDS011;2249;42.626;23.320;2024-03-02T06:03:42;34.63;;;20.13;;
4472;SDS011;2249;42.626;23.320;2024-03-02T06:06:10;34.00;;;21.90;;
4472;SDS011;2249;42.626;23.320;2024-03-02T06:08:42;31.27;;;19.23;;
4472;SDS011;2249;42.626;23.320;2024-03-02T06:11:23;35.37;;;22.10;;
4472;SDS011;2249;42.626;23.320;2024-03-02T06:13:49;35.87;;;22.13;;
4472;SDS011;2249;42.626;23.320;2024-03-02T06:16:16;34.43;;;21.53;;
4472;SDS011;2249;42.626;23.320;2024-03-02T06:18:42;35.90;;;21.00;;
4472;SDS011;2249;42.626;23.320;2024-03-02T06:21:10;31.57;;;20.67;;
4472;SDS011;2249;42.626;23.320;2024-03-02T06:23:37;35.60;;;21.40;;
4472;SDS011;2249;42.626;23.320;2024-03-02T06:26:03;33.70;;;20.50;;
4472;SDS011;2249;42.626;23.320;2024-03-02T06:28:30;38.27;;;22.23;;
4472;SDS011;2249;42.626;23.320;2024-03-02T06:30:56;33.27;;;21.63;;
4472;SDS011;2249;42.626;23.320;2024-03-02T06:33:23;33.60;;;21.13;;
4472;SDS011;2249;42.626;23.320;2024-03-02T06:35:49;44.03;;;24.73;;
4472;SDS011;2249;42.626;23.320;2024-03-02T06:38:17;31.07;;;18.17;;
4472;SDS011;2249;42.626;23.320;2024-03-02T06:40:44;26.70;;;16.70;;
4472;SDS011;2249;42.626;23.320;2024-03-02T06:43:10;29.47;;;17.80;;
4472;SDS011;2249;42.626;23.320;2024-03-02T06:45:37;31.13;;;18.90;;
4472;SDS011;2249;42.626;23.320;2024-03-02T06:48:04;23.30;;;16.47;;
4472;SDS011;2249;42.626;23.320;2024-03-02T06:50:31;25.87;;;16.20;;
4472;SDS011;2249;42.626;23.320;2024-03-02T06:52:57;23.10;;;14.70;;
4472;SDS011;2249;42.626;23.320;2024-03-02T06:55:25;26.10;;;17.50;;
4472;SDS011;2249;42.626;23.320;2024-03-02T06:57:51;26.87;;;16.30;;
4472;SDS011;2249;42.626;23.320;2024-03-02T07:00:18;23.00;;;16.50;;
4472;SDS011;2249;42.626;23.320;2024-03-02T07:02:45;25.53;;;15.80;;
4472;SDS011;2249;42.626;23.320;2024-03-02T07:05:13;29.10;;;18.17;;
4472;SDS011;2249;42.626;23.320;2024-03-02T07:07:39;24.20;;;16.77;;
4472;SDS011;2249;42.626;23.320;2024-03-02T07:10:06;23.50;;;15.90;;
4472;SDS011;2249;42.626;23.320;2024-03-02T07:12:35;26.80;;;16.97;;
4472;SDS011;2249;42.626;23.320;2024-03-02T07:15:02;24.50;;;17.50;;
4472;SDS011;2249;42.626;23.320;2024-03-02T07:17:50;33.80;;;20.73;;
4472;SDS011;2249;42.626;23.320;2024-03-02T07:20:16;27.90;;;19.23;;
4472;SDS011;2249;42.626;23.320;2024-03-02T07:22:43;28.00;;;19.37;;
4472;SDS011;2249;42.626;23.320;2024-03-02T07:25:09;36.47;;;21.97;;
4472;SDS011;2249;42.626;23.320;2024-03-02T07:27:40;29.60;;;18.00;;
4472;SDS011;2249;42.626;23.320;2024-03-02T07:30:07;27.77;;;17.90;;
4472;SDS011;2249;42.626;23.320;2024-03-02T07:32:33;32.60;;;19.27;;
4472;SDS011;2249;42.626;23.320;2024-03-02T07:35:00;33.00;;;19.70;;
4472;SDS011;2249;42.626;23.320;2024-03-02T07:37:28;35.40;;;20.83;;
4472;SDS011;2249;42.626;23.320;2024-03-02T07:39:55;35.90;;;20.77;;
4472;SDS011;2249;42.626;23.320;2024-03-02T07:42:21;31.40;;;20.07;;
4472;SDS011;2249;42.626;23.320;2024-03-02T07:44:49;29.13;;;19.70;;
4472;SDS011;2249;42.626;23.320;2024-03-02T07:47:16;29.43;;;18.77;;
4472;SDS011;2249;42.626;23.320;2024-03-02T07:49:44;31.17;;;21.70;;
4472;SDS011;2249;42.626;23.320;2024-03-02T07:52:10;27.73;;;19.13;;
4472;SDS011;2249;42.626;23.320;2024-03-02T07:54:37;25.33;;;17.43;;
4472;SDS011;2249;42.626;23.320;2024-03-02T07:57:03;29.70;;;20.20;;
4472;SDS011;2249;42.626;23.320;2024-03-02T07:59:30;20.90;;;14.40;;
4472;SDS011;2249;42.626;23.320;2024-03-02T08:01:58;27.60;;;19.47;;
4472;SDS011;2249;42.626;23.320;2024-03-02T08:04:24;30.20;;;18.50;;
4472;SDS011;2249;42.626;23.320;2024-03-02T08:06:51;30.17;;;19.50;;
4472;SDS011;2249;42.626;23.320;2024-03-02T08:09:17;25.03;;;17.50;;
4472;SDS011;2249;42.626;23.320;2024-03-02T08:11:44;31.17;;;19.40;;
4472;SDS011;2249;42.626;23.320;2024-03-02T08:14:10;35.20;;;22.43;;
4472;SDS011;2249;42.626;23.320;2024-03-02T08:16:37;30.97;;;19.23;;
4472;SDS011;2249;42.626;23.320;2024-03-02T08:19:05;33.90;;;20.30;;
4472;SDS011;2249;42.626;23.320;2024-03-02T08:21:31;29.40;;;20.20;;
4472;SDS011;2249;42.626;23.320;2024-03-02T08:24:00;31.80;;;21.57;;
4472;SDS011;2249;42.626;23.320;2024-03-02T08:26:26;29.70;;;19.67;;
4472;SDS011;2249;42.626;23.320;2024-03-02T08:28:54;30.67;;;19.53;;
4472;SDS011;2249;42.626;23.320;2024-03-02T08:31:20;38.10;;;22.20;;
4472;SDS011;2249;42.626;23.320;2024-03-02T08:33:47;35.57;;;23.77;;
4472;SDS011;2249;42.626;23.320;2024-03-02T08:36:15;27.07;;;15.90;;
4472;SDS011;2249;42.626;23.320;2024-03-02T08:38:41;48.70;;;21.00;;
4472;SDS011;2249;42.626;23.320;2024-03-02T08:41:09;32.30;;;20.50;;
4472;SDS011;2249;42.626;23.320;2024-03-02T08:43:38;31.73;;;18.60;;
4472;SDS011;2249;42.626;23.320;2024-03-02T08:46:05;30.27;;;19.27;;
4472;SDS011;2249;42.626;23.320;2024-03-02T08:48:31;33.47;;;21.30;;
4472;SDS011;2249;42.626;23.320;2024-03-02T08:50:58;32.50;;;19.30;;
4472;SDS011;2249;42.626;23.320;2024-03-02T08:53:25;39.40;;;23.37;;
4472;SDS011;2249;42.626;23.320;2024-03-02T08:55:52;46.30;;;24.27;;
4472;SDS011;2249;42.626;23.320;2024-03-02T08:58:20;30.03;;;19.17;;
4472;SDS011;2249;42.626;23.320;2024-03-02T09:00:47;43.80;;;24.73;;
4472;SDS011;2249;42.626;23.320;2024-03-02T09:03:13;40.27;;;22.33;;
4472;SDS011;2249;42.626;23.320;2024-03-02T09:05:40;37.00;;;21.80;;
4472;SDS011;2249;42.626;23.320;2024-03-02T09:08:08;36.17;;;20.63;;
4472;SDS011;2249;42.626;23.320;2024-03-02T09:10:36;38.17;;;22.20;;
4472;SDS011;2249;42.626;23.320;2024-03-02T09:13:03;55.13;;;25.70;;
4472;SDS011;2249;42.626;23.320;2024-03-02T09:15:30;120.37;;;49.40;;
4472;SDS011;2249;42.626;23.320;2024-03-02T09:17:56;167.07;;;71.00;;
4472;SDS011;2249;42.626;23.320;2024-03-02T09:20:23;71.33;;;39.23;;
4472;SDS011;2249;42.626;23.320;2024-03-02T09:22:49;34.63;;;22.10;;
4472;SDS011;2249;42.626;23.320;2024-03-02T09:25:16;27.20;;;18.97;;
4472;SDS011;2249;42.626;23.320;2024-03-02T09:27:44;29.13;;;19.03;;
4472;SDS011;2249;42.626;23.320;2024-03-02T09:30:10;32.37;;;19.50;;
4472;SDS011;2249;42.626;23.320;2024-03-02T09:32:38;28.03;;;17.13;;
4472;SDS011;2249;42.626;23.320;2024-03-02T09:35:05;27.03;;;18.00;;
4472;SDS011;2249;42.626;23.320;2024-03-02T09:37:32;28.53;;;18.90;;
4472;SDS011;2249;42.626;23.320;2024-03-02T09:39:58;26.73;;;18.33;;
4472;SDS011;2249;42.626;23.320;2024-03-02T09:42:25;26.30;;;17.43;;
4472;SDS011;2249;42.626;23.320;2024-03-02T09:44:53;30.10;;;18.83;;
4472;SDS011;2249;42.626;23.320;2024-03-02T09:47:20;26.67;;;16.40;;
4472;SDS011;2249;42.626;23.320;2024-03-02T09:49:47;26.33;;;18.27;;
4472;SDS011;2249;42.626;23.320;2024-03-02T09:52:13;25.80;;;17.07;;
4472;SDS011;2249;42.626;23.320;2024-03-02T09:54:41;26.40;;;16.50;;
4472;SDS011;2249;42.626;23.320;2024-03-02T09:57:07;24.93;;;16.37;;
4472;SDS011;2249;42.626;23.320;2024-03-02T09:59:34;25.13;;;16.40;;
4472;SDS011;2249;42.626;23.320;2024-03-02T10:02:03;24.17;;;15.03;;
4472;SDS011;2249;42.626;23.320;2024-03-02T10:04:32;20.57;;;14.60;;
4472;SDS011;2249;42.626;23.320;2024-03-02T10:07:10;22.93;;;14.93;;
4472;SDS011;2249;42.626;23.320;2024-03-02T10:09:37;26.30;;;15.47;;
4472;SDS011;2249;42.626;23.320;2024-03-02T10:12:04;23.30;;;16.50;;
4472;SDS011;2249;42.626;23.320;2024-03-02T10:14:31;27.00;;;16.80;;
4472;SDS011;2249;42.626;23.320;2024-03-02T10:17:02;25.67;;;17.40;;
4472;SDS011;2249;42.626;23.320;2024-03-02T10:19:29;25.53;;;17.87;;
4472;SDS011;2249;42.626;23.320;2024-03-02T10:21:58;25.53;;;16.80;;
4472;SDS011;2249;42.626;23.320;2024-03-02T10:24:25;24.70;;;16.00;;
4472;SDS011;2249;42.626;23.320;2024-03-02T10:26:52;26.10;;;16.10;;
4472;SDS011;2249;42.626;23.320;2024-03-02T10:29:18;27.87;;;18.17;;
4472;SDS011;2249;42.626;23.320;2024-03-02T10:31:45;26.60;;;17.30;;
4472;SDS011;2249;42.626;23.320;2024-03-02T10:34:13;28.20;;;18.53;;
4472;SDS011;2249;42.626;23.320;2024-03-02T10:36:41;35.53;;;20.13;;
4472;SDS011;2249;42.626;23.320;2024-03-02T10:39:08;32.57;;;20.20;;
4472;SDS011;2249;42.626;23.320;2024-03-02T10:41:35;30.70;;;19.07;;
4472;SDS011;2249;42.626;23.320;2024-03-02T10:44:03;29.97;;;19.97;;
4472;SDS011;2249;42.626;23.320;2024-03-02T10:46:30;26.60;;;18.03;;
4472;SDS011;2249;42.626;23.320;2024-03-02T10:48:57;29.63;;;19.27;;
4472;SDS011;2249;42.626;23.320;2024-03-02T10:51:26;34.43;;;20.20;;
4472;SDS011;2249;42.626;23.320;2024-03-02T10:53:54;28.13;;;19.23;;
4472;SDS011;2249;42.626;23.320;2024-03-02T10:56:21;39.03;;;20.20;;
4472;SDS011;2249;42.626;23.320;2024-03-02T10:58:49;34.03;;;20.03;;
4472;SDS011;2249;42.626;23.320;2024-03-02T11:01:17;34.97;;;22.40;;
4472;SDS011;2249;42.626;23.320;2024-03-02T11:03:44;32.10;;;19.00;;
4472;SDS011;2249;42.626;23.320;2024-03-02T11:06:11;32.20;;;20.03;;
4472;SDS011;2249;42.626;23.320;2024-03-02T11:08:39;31.70;;;20.93;;
4472;SDS011;2249;42.626;23.320;2024-03-02T11:11:06;35.57;;;21.37;;
4472;SDS011;2249;42.626;23.320;2024-03-02T11:13:34;30.53;;;18.97;;
4472;SDS011;2249;42.626;23.320;2024-03-02T11:16:03;31.57;;;19.57;;
4472;SDS011;2249;42.626;23.320;2024-03-02T11:18:30;33.77;;;20.87;;
4472;SDS011;2249;42.626;23.320;2024-03-02T11:20:57;32.87;;;19.47;;
4472;SDS011;2249;42.626;23.320;2024-03-02T11:23:31;36.93;;;21.57;;
4472;SDS011;2249;42.626;23.320;2024-03-02T11:28:41;31.20;;;19.27;;
4472;SDS011;2249;42.626;23.320;2024-03-02T11:31:07;34.40;;;19.30;;
4472;SDS011;2249;42.626;23.320;2024-03-02T11:33:34;31.87;;;19.30;;
4472;SDS011;2249;42.626;23.320;2024-03-02T11:36:00;33.17;;;20.27;;
4472;SDS011;2249;42.626;23.320;2024-03-02T11:38:27;31.10;;;19.50;;
4472;SDS011;2249;42.626;23.320;2024-03-02T11:40:54;34.00;;;21.17;;
4472;SDS011;2249;42.626;23.320;2024-03-02T11:43:21;38.90;;;22.30;;
4472;SDS011;2249;42.626;23.320;2024-03-02T11:45:50;32.97;;;20.73;;
4472;SDS011;2249;42.626;23.320;2024-03-02T11:48:22;33.00;;;20.20;;
4472;SDS011;2249;42.626;23.320;2024-03-02T11:50:50;26.20;;;16.87;;
4472;SDS011;2249;42.626;23.320;2024-03-02T11:53:17;19.40;;;13.10;;
4472;SDS011;2249;42.626;23.320;2024-03-02T11:55:44;30.60;;;19.23;;
4472;SDS011;2249;42.626;23.320;2024-03-02T11:58:11;29.27;;;20.13;;
4472;SDS011;2249;42.626;23.320;2024-03-02T12:00:38;37.13;;;20.33;;
4472;SDS011;2249;42.626;23.320;2024-03-02T12:03:06;30.67;;;19.97;;
4472;SDS011;2249;42.626;23.320;2024-03-02T12:05:33;38.37;;;21.17;;
4472;SDS011;2249;42.626;23.320;2024-03-02T12:08:01;29.43;;;20.00;;
4472;SDS011;2249;42.626;23.320;2024-03-02T12:10:29;29.67;;;18.90;;
4472;SDS011;2249;42.626;23.320;2024-03-02T12:12:56;31.07;;;19.90;;
4472;SDS011;2249;42.626;23.320;2024-03-02T12:15:24;30.13;;;19.00;;
4472;SDS011;2249;42.626;23.320;2024-03-02T12:17:52;30.67;;;20.20;;
4472;SDS011;2249;42.626;23.320;2024-03-02T12:20:20;29.70;;;18.60;;
4472;SDS011;2249;42.626;23.320;2024-03-02T12:22:48;27.03;;;17.50;;
4472;SDS011;2249;42.626;23.320;2024-03-02T12:25:15;28.23;;;16.70;;
4472;SDS011;2249;42.626;23.320;2024-03-02T12:27:42;29.10;;;17.90;;
4472;SDS011;2249;42.626;23.320;2024-03-02T12:30:10;28.07;;;17.63;;
4472;SDS011;2249;42.626;23.320;2024-03-02T12:32:39;21.60;;;14.47;;
4472;SDS011;2249;42.626;23.320;2024-03-02T12:35:05;24.50;;;16.40;;
4472;SDS011;2249;42.626;23.320;2024-03-02T12:37:41;23.03;;;17.07;;
4472;SDS011;2249;42.626;23.320;2024-03-02T12:40:09;27.50;;;18.17;;
4472;SDS011;2249;42.626;23.320;2024-03-02T12:42:37;27.90;;;17.10;;
4472;SDS011;2249;42.626;23.320;2024-03-02T12:45:04;29.00;;;17.83;;
4472;SDS011;2249;42.626;23.320;2024-03-02T12:47:30;26.57;;;16.30;;
4472;SDS011;2249;42.626;23.320;2024-03-02T12:49:57;25.37;;;16.90;;
4472;SDS011;2249;42.626;23.320;2024-03-02T12:52:24;27.70;;;17.90;;
4472;SDS011;2249;42.626;23.320;2024-03-02T12:54:52;30.73;;;18.90;;
4472;SDS011;2249;42.626;23.320;2024-03-02T12:57:24;27.57;;;17.50;;
4472;SDS011;2249;42.626;23.320;2024-03-02T12:59:51;27.83;;;17.47;;
4472;SDS011;2249;42.626;23.320;2024-03-02T13:02:18;22.97;;;15.23;;
4472;SDS011;2249;42.626;23.320;2024-03-02T13:04:44;25.50;;;17.10;;
4472;SDS011;2249;42.626;23.320;2024-03-02T13:07:11;27.77;;;18.50;;
4472;SDS011;2249;42.626;23.320;2024-03-02T13:09:39;27.07;;;17.47;;
4472;SDS011;2249;42.626;23.320;2024-03-02T13:12:07;24.37;;;17.57;;
4472;SDS011;2249;42.626;23.320;2024-03-02T13:14:36;26.90;;;17.93;;
4472;SDS011;2249;42.626;23.320;2024-03-02T13:17:02;28.73;;;19.10;;
4472;SDS011;2249;42.626;23.320;2024-03-02T13:19:30;30.43;;;19.40;;
4472;SDS011;2249;42.626;23.320;2024-03-02T13:21:57;26.67;;;18.07;;
4472;SDS011;2249;42.626;23.320;2024-03-02T13:24:23;28.20;;;19.47;;
4472;SDS011;2249;42.626;23.320;2024-03-02T13:26:53;29.67;;;20.77;;
4472;SDS011;2249;42.626;23.320;2024-03-02T13:29:24;30.60;;;19.67;;
4472;SDS011;2249;42.626;23.320;2024-03-02T13:31:50;29.77;;;20.57;;
4472;SDS011;2249;42.626;23.320;2024-03-02T13:34:17;29.20;;;20.27;;
4472;SDS011;2249;42.626;23.320;2024-03-02T13:36:44;29.97;;;19.80;;
4472;SDS011;2249;42.626;23.320;2024-03-02T13:39:10;32.57;;;19.70;;
4472;SDS011;2249;42.626;23.320;2024-03-02T13:41:40;28.50;;;21.37;;
4472;SDS011;2249;42.626;23.320;2024-03-02T13:44:07;26.93;;;18.33;;
4472;SDS011;2249;42.626;23.320;2024-03-02T13:46:35;29.90;;;21.10;;
4472;SDS011;2249;42.626;23.320;2024-03-02T13:49:01;28.83;;;20.57;;
4472;SDS011;2249;42.626;23.320;2024-03-02T13:51:29;31.73;;;21.53;;
4472;SDS011;2249;42.626;23.320;2024-03-02T13:53:57;33.70;;;20.90;;
4472;SDS011;2249;42.626;23.320;2024-03-02T13:56:23;28.60;;;20.43;;
4472;SDS011;2249;42.626;23.320;2024-03-02T13:58:50;31.37;;;22.30;;
4472;SDS011;2249;42.626;23.320;2024-03-02T14:01:16;30.73;;;21.00;;
4472;SDS011;2249;42.626;23.320;2024-03-02T14:03:44;31.20;;;20.37;;
4472;SDS011;2249;42.626;23.320;2024-03-02T14:06:11;33.63;;;22.50;;
4472;SDS011;2249;42.626;23.320;2024-03-02T14:08:37;49.47;;;34.30;;
4472;SDS011;2249;42.626;23.320;2024-03-02T14:11:04;63.10;;;44.30;;
4472;SDS011;2249;42.626;23.320;2024-03-02T14:13:30;38.07;;;26.43;;
4472;SDS011;2249;42.626;23.320;2024-03-02T14:15:57;32.07;;;22.47;;
4472;SDS011;2249;42.626;23.320;2024-03-02T14:18:24;34.63;;;24.17;;
4472;SDS011;2249;42.626;23.320;2024-03-02T14:20:52;28.97;;;20.47;;
4472;SDS011;2249;42.626;23.320;2024-03-02T14:23:18;30.87;;;21.53;;
4472;SDS011;2249;42.626;23.320;2024-03-02T14:25:45;31.97;;;22.07;;
4472;SDS011;2249;42.626;23.320;2024-03-02T14:28:12;34.63;;;23.47;;
4472;SDS011;2249;42.626;23.320;2024-03-02T14:30:41;30.80;;;21.70;;
4472;SDS011;2249;42.626;23.320;2024-03-02T14:33:07;34.00;;;24.27;;
4472;SDS011;2249;42.626;23.320;2024-03-02T14:35:36;29.23;;;20.70;;
4472;SDS011;2249;42.626;23.320;2024-03-02T14:38:03;30.60;;;23.27;;